Time;durP1;ratioP1;P1;durP2;ratioP2;P2;SDS_P1;SDS_P2;PMS_P1;PMS_P2;Temp;Humidity;BMP_temperature;BMP_pressure;BME280_temperature;BME280_humidity;BME280_pressure;Samples;Min_cycle;Max_cycle;Signal;HPM_P1;HPM_P2
2022/02/09 00:05:08;;;;;;;;;;;10.00;83.90;;;;;;4962037;28;20104;-59
2022/02/09 00:08:10;;;;;;;2.65;1.90;;;10.00;84.00;;;;;;4956271;28;19953;-60
2022/02/09 00:10:32;;;;;;;5.30;2.40;;;10.00;84.00;;;;;;4968928;28;20067;-60
2022/02/09 00:34:30;;;;;;;3.60;2.08;;;9.90;83.70;;;;;;4972860;28;20517;-60
2022/02/09 00:58:38;;;;;;;10.40;1.63;;;9.90;83.80;;;;;;4968409;28;20568;-60
2022/02/09 01:33:07;;;;;;;5.03;1.65;;;9.80;86.30;;;;;;4975127;28;20074;-60
2022/02/09 01:56:59;;;;;;;4.57;2.05;;;9.50;88.20;;;;;;4977115;28;20039;-60
2022/02/09 01:59:27;;;;;;;3.08;1.90;;;9.50;88.30;;;;;;4974973;28;20058;-60
2022/02/09 02:01:55;;;;;;;6.35;2.80;;;9.50;88.30;;;;;;4975327;28;20046;-60
2022/02/09 02:04:25;;;;;;;2.75;1.63;;;9.40;88.20;;;;;;4975831;28;20097;-60
2022/02/09 02:06:53;;;;;;;4.63;2.15;;;9.50;88.40;;;;;;4967238;28;20039;-59
2022/02/09 02:09:24;;;;;;;3.40;1.60;;;9.50;88.40;;;;;;4957655;28;20051;-59
2022/02/09 02:12:00;;;;;;;4.93;1.52;;;9.50;88.50;;;;;;4957739;28;20513;-59
2022/02/09 02:14:35;;;;;;;2.38;1.73;;;9.50;88.60;;;;;;4957629;28;20122;-59
2022/02/09 02:20:13;;;;;;;3.25;1.70;;;9.50;89.20;;;;;;4908795;29;20057;-59
2022/02/09 02:23:04;;;;;;;3.33;1.58;;;9.50;89.60;;;;;;4957491;28;20051;-60
2022/02/09 02:25:44;;;;;;;2.35;1.30;;;9.50;90.00;;;;;;4957360;28;20130;-60
2022/02/09 02:28:39;;;;;;;4.35;1.75;;;9.40;90.00;;;;;;4957462;28;20043;-60
2022/02/09 02:34:32;;;;;;;2.58;1.67;;;9.40;90.10;;;;;;4956137;29;20118;-61
2022/02/09 02:37:07;;;;;;;1.88;1.60;;;9.40;90.10;;;;;;4957257;28;20047;-60
2022/02/09 03:14:31;;;;;;;3.20;1.55;;;9.40;90.30;;;;;;4956366;28;20047;-60
2022/02/09 03:17:03;;;;;;;7.03;2.67;;;9.40;90.30;;;;;;4956515;28;20141;-60
2022/02/09 03:47:06;;;;;;;4.20;1.35;;;9.30;91.20;;;;;;4955943;29;20486;-60
2022/02/09 03:49:53;;;;;;;4.30;1.30;;;9.30;91.20;;;;;;4955912;29;20525;-60
2022/02/09 03:58:15;;;;;;;4.25;1.30;;;9.20;91.50;;;;;;4947778;28;20142;-60
2022/02/09 04:00:45;;;;;;;4.80;1.80;;;9.20;91.80;;;;;;4955797;28;20083;-60
2022/02/09 04:03:22;;;;;;;2.70;1.33;;;9.20;92.10;;;;;;4955811;28;20061;-60
2022/02/09 04:05:51;;;;;;;3.63;1.50;;;9.20;92.30;;;;;;4955745;28;20498;-60
2022/02/09 04:08:21;;;;;;;2.20;1.45;;;9.20;92.60;;;;;;4955790;28;20534;-60
2022/02/09 04:11:03;;;;;;;2.95;1.48;;;9.20;92.70;;;;;;4954533;29;20557;-60
2022/02/09 04:13:44;;;;;;;2.97;1.50;;;9.30;92.90;;;;;;4954307;29;20070;-60
2022/02/09 04:43:34;;;;;;;4.65;1.15;;;9.40;93.30;;;;;;4954483;29;20482;-60
2022/02/09 04:49:53;;;;;;;2.40;1.73;;;9.30;93.50;;;;;;4915096;29;20135;-60
2022/02/09 04:54:42;;;;;;;3.97;1.50;;;9.20;93.70;;;;;;4955303;28;20062;-60
2022/02/09 05:24:49;;;;;;;5.53;1.80;;;8.90;94.30;;;;;;4954013;29;20058;-60
2022/02/09 05:29:44;;;;;;;4.50;3.28;;;8.90;94.80;;;;;;4954986;28;20039;-60
2022/02/09 05:32:12;;;;;;;7.05;3.63;;;8.90;94.90;;;;;;4956801;28;20035;-60
2022/02/09 05:34:40;;;;;;;8.60;4.22;;;8.90;95.10;;;;;;4981109;28;20074;-60
2022/02/09 05:37:08;;;;;;;4.40;2.35;;;8.90;95.30;;;;;;4966764;28;20051;-60
2022/02/09 05:39:35;;;;;;;2.75;1.70;;;8.90;95.40;;;;;;4957085;28;20044;-60
2022/02/09 05:42:08;;;;;;;6.50;2.30;;;8.90;95.50;;;;;;4956926;28;20055;-60
2022/02/09 05:44:35;;;;;;;3.38;1.58;;;8.90;95.50;;;;;;4958163;28;20067;-60
2022/02/09 05:50:02;;;;;;;7.25;3.10;;;8.80;96.00;;;;;;4958069;28;20051;-60
2022/02/09 05:57:50;;;;;;;20.40;9.25;;;8.80;96.30;;;;;;4958973;28;20070;-60
2022/02/09 06:00:18;;;;;;;22.80;13.80;;;8.80;96.30;;;;;;4970562;28;20050;-60
2022/02/09 06:02:46;;;;;;;18.60;12.18;;;8.90;96.30;;;;;;4963540;28;20044;-60
2022/02/09 06:05:16;;;;;;;20.75;9.52;;;8.90;96.20;;;;;;4957510;28;20058;-60
2022/02/09 06:07:45;;;;;;;11.32;7.28;;;9.00;96.30;;;;;;4965886;28;20051;-60
2022/02/09 06:10:18;;;;;;;12.88;5.07;;;9.10;96.30;;;;;;4971833;28;20051;-60
2022/02/09 06:12:54;;;;;;;6.38;3.45;;;9.30;96.30;;;;;;4973986;28;20134;-60
2022/02/09 06:20:57;;;;;;;8.43;2.13;;;10.10;95.20;;;;;;4956476;29;20091;-60
2022/02/09 06:23:25;;;;;;;3.10;1.60;;;10.40;94.70;;;;;;4957886;29;20043;-60
2022/02/09 06:25:53;;;;;;;5.25;2.28;;;10.80;94.00;;;;;;4956386;29;20047;-61
2022/02/09 06:28:21;;;;;;;2.13;1.50;;;11.20;93.30;;;;;;4957655;28;20047;-60
2022/02/09 06:30:49;;;;;;;4.60;1.77;;;11.60;92.70;;;;;;4957389;29;20143;-60
2022/02/09 06:33:16;;;;;;;4.00;2.15;;;12.00;92.00;;;;;;4961545;28;20039;-61
2022/02/09 06:35:44;;;;;;;3.53;2.00;;;12.50;91.20;;;;;;4960532;28;20409;-61
2022/02/09 06:38:13;;;;;;;3.10;2.13;;;12.90;90.40;;;;;;4968950;28;20041;-60
2022/02/09 06:40:43;;;;;;;4.18;2.33;;;13.30;89.80;;;;;;4975195;28;20039;-60
2022/02/09 06:43:13;;;;;;;6.40;2.70;;;13.70;88.70;;;;;;4973612;28;20043;-60
2022/02/09 06:45:42;;;;;;;6.47;2.00;;;14.10;87.40;;;;;;4970543;28;20050;-60
2022/02/09 06:48:16;;;;;;;4.13;2.22;;;14.50;86.60;;;;;;4962774;28;20050;-60
2022/02/09 06:50:50;;;;;;;3.30;2.05;;;15.10;85.40;;;;;;4968082;28;20141;-60
2022/02/09 06:56:00;;;;;;;3.55;1.75;;;16.20;82.40;;;;;;4973145;28;20589;-60
2022/02/09 07:01:05;;;;;;;5.00;2.08;;;17.50;79.30;;;;;;4961884;28;20050;-60
2022/02/09 07:03:33;;;;;;;3.47;1.75;;;18.10;78.10;;;;;;4969530;28;20038;-61
2022/02/09 07:06:03;;;;;;;5.10;1.80;;;18.50;76.70;;;;;;4970995;28;20501;-60
2022/02/09 07:08:30;;;;;;;4.32;2.10;;;18.90;75.60;;;;;;4972536;28;20043;-60
2022/02/09 07:10:58;;;;;;;3.75;1.75;;;19.10;74.80;;;;;;4973325;28;20094;-60
2022/02/09 07:13:25;;;;;;;2.75;2.17;;;19.20;74.80;;;;;;4972702;28;20520;-60
2022/02/09 07:15:55;;;;;;;3.78;1.83;;;19.10;74.60;;;;;;4973361;28;20066;-60
2022/02/09 07:18:24;;;;;;;3.50;2.33;;;19.00;74.80;;;;;;4974715;28;20497;-60
2022/02/09 07:23:29;;;;;;;5.68;2.22;;;18.60;75.60;;;;;;4975616;28;20047;-59
2022/02/09 07:26:17;;;;;;;8.43;3.35;;;18.30;76.60;;;;;;4975601;28;20517;-60
2022/02/09 07:28:46;;;;;;;4.80;2.05;;;18.20;77.20;;;;;;4974727;28;20367;-60
2022/02/09 07:31:14;;;;;;;4.55;1.88;;;18.00;77.90;;;;;;4963076;28;20035;-60
2022/02/09 07:33:44;;;;;;;4.50;2.42;;;17.90;78.50;;;;;;4968804;28;20038;-60
2022/02/09 07:36:13;;;;;;;5.13;1.70;;;18.00;78.80;;;;;;4959880;28;20035;-60
2022/02/09 07:38:41;;;;;;;6.95;2.35;;;18.00;79.00;;;;;;4961064;28;20114;-59
2022/02/09 07:41:09;;;;;;;8.63;2.03;;;18.10;79.60;;;;;;4961673;28;20043;-61
2022/02/09 07:51:42;;;;;;;6.70;2.65;;;18.10;80.90;;;;;;4963875;28;20046;-60
2022/02/09 07:54:11;;;;;;;9.40;2.45;;;18.00;81.60;;;;;;4955797;28;20050;-60
2022/02/09 07:56:41;;;;;;;6.40;1.75;;;18.00;81.90;;;;;;4954634;28;20501;-60
2022/02/09 07:59:15;;;;;;;6.80;1.85;;;17.80;82.90;;;;;;4954838;28;20054;-60
2022/02/09 08:01:44;;;;;;;4.18;1.67;;;17.60;83.80;;;;;;4955841;28;20434;-60
2022/02/09 08:04:12;;;;;;;7.18;1.92;;;17.50;84.60;;;;;;4958781;28;20046;-60
2022/02/09 08:06:39;;;;;;;3.38;1.45;;;17.30;85.50;;;;;;4962119;28;20039;-60
2022/02/09 08:09:33;;;;;;;10.05;1.95;;;17.10;86.10;;;;;;4974069;28;20043;-60
2022/02/09 08:12:29;;;;;;;6.40;1.80;;;16.90;86.80;;;;;;4968372;28;20081;-60
2022/02/09 08:20:28;;;;;;;7.70;1.40;;;16.80;87.20;;;;;;4974732;28;20517;-60
2022/02/09 08:31:12;;;;;;;4.60;2.13;;;16.70;88.30;;;;;;4971174;28;20042;-60
2022/02/09 08:33:36;;;;;;;6.22;1.73;;;16.70;88.20;;;;;;4972309;28;20074;-60
2022/02/09 08:36:04;;;;;;;3.25;1.40;;;16.80;88.00;;;;;;4972948;28;20042;-60
2022/02/09 08:38:32;;;;;;;3.53;1.23;;;16.80;88.50;;;;;;4972407;28;20047;-60
2022/02/09 08:41:00;;;;;;;4.40;1.88;;;16.80;88.70;;;;;;4972561;28;20046;-60
2022/02/09 08:43:27;;;;;;;4.47;2.35;;;16.80;89.00;;;;;;4974530;28;20043;-60
2022/02/09 08:45:55;;;;;;;3.38;1.83;;;17.00;88.70;;;;;;4974802;28;20050;-60
2022/02/09 08:48:23;;;;;;;6.30;2.15;;;17.00;89.00;;;;;;4974385;28;20102;-60
2022/02/09 08:50:52;;;;;;;6.45;1.90;;;17.20;89.90;;;;;;4974564;28;20525;-60
2022/02/09 08:53:20;;;;;;;7.00;2.10;;;17.10;89.80;;;;;;4974580;28;20042;-60
2022/02/09 08:55:48;;;;;;;3.38;1.92;;;17.10;90.10;;;;;;4974438;28;20047;-60
2022/02/09 08:58:19;;;;;;;5.22;1.85;;;17.00;90.10;;;;;;4972998;28;20046;-60
2022/02/09 09:00:48;;;;;;;6.95;2.10;;;16.90;90.20;;;;;;4974466;28;20047;-60
2022/02/09 10:03:04;;;;;;;8.15;3.60;;;17.10;91.50;;;;;;4974555;28;20126;-61
2022/02/09 10:34:06;;;;;;;12.20;6.75;;;16.60;92.00;;;;;;4974202;28;20062;-60
2022/02/09 10:36:49;;;;;;;9.77;5.15;;;16.50;92.70;;;;;;4968818;28;20114;-60
2022/02/09 10:39:41;;;;;;;7.43;2.30;;;16.60;92.80;;;;;;4975052;28;20042;-61
2022/02/09 10:42:31;;;;;;;6.85;2.15;;;16.50;93.20;;;;;;4963687;28;20568;-63
2022/02/09 10:45:18;;;;;;;5.72;2.08;;;16.40;93.20;;;;;;4973024;28;20042;-63
2022/02/09 10:47:45;;;;;;;7.85;2.70;;;16.30;93.50;;;;;;4973569;28;20051;-60
2022/02/09 10:50:24;;;;;;;7.13;2.15;;;16.10;93.90;;;;;;4973980;28;20434;-60
2022/02/09 10:52:52;;;;;;;5.97;1.67;;;16.10;94.10;;;;;;4975167;28;20051;-60
2022/02/09 10:55:38;;;;;;;6.25;2.25;;;16.20;94.10;;;;;;4972448;28;20051;-60
2022/02/09 10:58:11;;;;;;;24.63;3.63;;;16.40;94.00;;;;;;4972171;28;20047;-60
2022/02/09 11:00:45;;;;;;;4.13;2.42;;;16.50;93.60;;;;;;4972159;28;20532;-60
2022/02/09 11:03:16;;;;;;;6.20;2.40;;;16.50;93.60;;;;;;4972928;28;20066;-63
2022/02/09 11:05:48;;;;;;;5.65;2.55;;;16.50;93.60;;;;;;4972037;28;20046;-63
2022/02/09 11:08:17;;;;;;;4.38;2.28;;;16.50;93.50;;;;;;4971115;28;20043;-63
2022/02/09 11:10:50;;;;;;;4.15;2.00;;;16.70;93.50;;;;;;4971517;28;20042;-63
2022/02/09 11:13:18;;;;;;;8.98;2.45;;;16.70;93.50;;;;;;4974416;28;20034;-63
2022/02/09 11:15:47;;;;;;;5.97;2.33;;;16.80;93.50;;;;;;4975523;28;20516;-60
2022/02/09 11:18:19;;;;;;;4.60;1.92;;;16.60;93.10;;;;;;4975839;28;20043;-60
2022/02/09 11:21:01;;;;;;;9.52;2.45;;;16.60;93.30;;;;;;4976048;28;20043;-60
2022/02/09 11:23:44;;;;;;;4.75;2.03;;;16.40;93.60;;;;;;4975745;28;20043;-62
2022/02/09 11:26:28;;;;;;;6.78;2.13;;;16.40;93.60;;;;;;4975793;28;20137;-62
2022/02/09 11:32:18;;;;;;;4.95;3.00;;;16.10;93.90;;;;;;4966124;28;20045;-60
2022/02/09 11:34:57;;;;;;;11.10;5.88;;;16.20;94.30;;;;;;4958858;28;20090;-60
2022/02/09 11:43:21;;;;;;;9.07;3.45;;;16.60;93.30;;;;;;4956135;28;20044;-60
2022/02/09 11:46:01;;;;;;;6.38;2.00;;;16.70;93.30;;;;;;4972774;28;20054;-60
2022/02/09 12:11:33;;;;;;;5.07;2.60;;;16.80;92.50;;;;;;4958539;28;20486;-60
2022/02/09 12:14:18;;;;;;;6.25;3.28;;;16.90;92.30;;;;;;4952910;29;20062;-60
2022/02/09 12:19:45;;;;;;;15.25;3.75;;;17.00;92.50;;;;;;4955361;28;20413;-60
2022/02/09 12:22:21;;;;;;;7.35;2.40;;;16.90;92.40;;;;;;4955655;28;20494;-60
2022/02/09 12:24:58;;;;;;;6.13;2.65;;;17.00;92.00;;;;;;4955312;28;20043;-60
2022/02/09 12:27:26;;;;;;;;;;;16.90;92.10;;;;;;4955936;28;20046;-63
2022/02/09 12:30:07;;;;;;;4.28;2.58;;;16.90;92.20;;;;;;4971959;28;19979;-61
2022/02/09 12:32:35;;;;;;;4.65;3.03;;;16.80;92.10;;;;;;4971548;28;20039;-61
2022/02/09 12:35:08;;;;;;;6.53;1.95;;;16.80;92.20;;;;;;4971456;28;20043;-60
2022/02/09 12:37:42;;;;;;;7.03;1.80;;;16.70;92.00;;;;;;4971504;28;20054;-61
2022/02/09 12:40:22;;;;;;;3.65;1.77;;;16.70;91.80;;;;;;4970088;28;20047;-61
2022/02/09 12:42:52;;;;;;;3.45;1.63;;;16.70;91.90;;;;;;4970868;28;20045;-61
2022/02/09 12:45:23;;;;;;;6.97;2.00;;;16.70;91.90;;;;;;4976215;28;20089;-60
2022/02/09 12:48:01;;;;;;;4.55;1.75;;;16.60;92.20;;;;;;4977061;28;20401;-61
2022/02/09 12:50:34;;;;;;;9.95;2.78;;;16.60;92.20;;;;;;4976530;28;20566;-61
2022/02/09 12:53:03;;;;;;;5.10;2.47;;;16.50;91.90;;;;;;4975894;28;20051;-61
2022/02/09 12:55:42;;;;;;;3.97;2.35;;;16.40;91.50;;;;;;4976486;28;20201;-61
2022/02/09 12:58:12;;;;;;;5.47;3.08;;;16.40;91.90;;;;;;4976666;28;20122;-61
2022/02/09 13:00:47;;;;;;;4.32;3.17;;;16.30;92.00;;;;;;4976195;28;20063;-62
2022/02/09 13:03:18;;;;;;;2.83;1.58;;;16.30;92.30;;;;;;4975867;28;20043;-61
2022/02/09 13:06:03;;;;;;;9.55;2.47;;;16.20;91.70;;;;;;4976923;28;20054;-61
2022/02/09 13:08:31;;;;;;;2.97;1.55;;;16.20;91.90;;;;;;4977246;28;20043;-63
2022/02/09 13:11:16;;;;;;;6.53;2.10;;;16.20;92.40;;;;;;4976036;28;20126;-62
2022/02/09 13:13:55;;;;;;;6.43;2.90;;;16.10;92.60;;;;;;4976334;28;20043;-61
2022/02/09 13:16:49;;;;;;;5.72;2.67;;;16.20;92.70;;;;;;4975797;28;20540;-60
2022/02/09 14:17:14;;;;;;;7.55;2.92;;;15.50;94.50;;;;;;4976458;28;20486;-61
2022/02/09 14:48:14;;;;;;;4.15;1.90;;;14.80;95.60;;;;;;4976346;28;19929;-57
2022/02/09 14:53:14;;;;;;;5.65;2.17;;;14.80;95.90;;;;;;4976328;28;20502;-57
2022/02/09 14:55:48;;;;;;;8.25;2.67;;;14.70;96.00;;;;;;4974771;28;20488;-57
2022/02/09 14:58:23;;;;;;;4.13;2.53;;;14.60;96.00;;;;;;4959130;28;20097;-57
2022/02/09 15:01:00;;;;;;;4.05;2.88;;;14.60;96.10;;;;;;4975870;28;20486;-59
2022/02/09 15:06:27;;;;;;;6.35;2.30;;;14.60;96.20;;;;;;4976000;28;20035;-58
2022/02/09 15:09:06;;;;;;;5.82;2.25;;;14.50;96.30;;;;;;4976038;28;20093;-58
2022/02/09 15:11:50;;;;;;;4.30;2.72;;;14.50;96.40;;;;;;4976124;28;20069;-58
2022/02/09 15:14:30;;;;;;;6.18;3.67;;;14.50;96.50;;;;;;4974947;28;20057;-58
2022/02/09 15:20:24;;;;;;;6.38;3.25;;;14.50;96.50;;;;;;4975879;28;20569;-58
2022/02/09 15:22:38;;;;;;;7.40;3.42;;;14.40;96.50;;;;;;4976180;28;20517;-58
2022/02/09 15:25:31;;;;;;;7.93;4.55;;;14.40;96.70;;;;;;4975872;28;20070;-58
2022/02/09 15:28:00;;;;;;;7.55;3.78;;;14.30;96.70;;;;;;4974820;28;20065;-58
2022/02/09 15:30:31;;;;;;;5.32;2.75;;;14.20;96.80;;;;;;4975738;28;20125;-58
2022/02/09 15:33:01;;;;;;;6.38;3.05;;;14.20;97.00;;;;;;4975552;28;20046;-58
2022/02/09 15:35:36;;;;;;;6.93;2.88;;;14.10;97.10;;;;;;4975560;28;20070;-58
2022/02/09 15:38:18;;;;;;;4.10;2.13;;;14.10;97.10;;;;;;4974190;28;20045;-58
2022/02/09 15:40:58;;;;;;;8.05;3.38;;;14.10;97.10;;;;;;4974356;28;20053;-58
2022/02/09 16:05:58;;;;;;;4.97;3.00;;;13.90;97.40;;;;;;4975078;28;19981;-57
2022/02/09 16:22:14;;;;;;;8.43;3.85;;;13.70;97.50;;;;;;4992062;28;20046;-57
2022/02/09 16:25:13;;;;;;;6.43;3.13;;;13.70;97.40;;;;;;4976776;28;20073;-57
2022/02/09 16:33:33;;;;;;;6.05;3.35;;;13.60;97.20;;;;;;4973813;28;20298;-58
2022/02/09 16:46:55;;;;;;;6.93;4.68;;;13.80;96.70;;;;;;4973523;28;20182;-57
2022/02/09 16:52:01;;;;;;;9.13;4.93;;;13.80;96.60;;;;;;4973182;28;20058;-56
2022/02/09 16:54:57;;;;;;;7.53;5.50;;;13.70;96.50;;;;;;4974737;28;20417;-55
2022/02/09 17:19:15;;;;;;;8.52;6.45;;;13.60;96.40;;;;;;4974423;28;20389;-55
2022/02/09 17:21:43;;;;;;;9.73;7.00;;;13.50;96.40;;;;;;4974419;28;20074;-51
2022/02/09 17:24:10;;;;;;;7.68;6.30;;;13.50;96.50;;;;;;4974383;28;20046;-55
2022/02/09 17:26:39;;;;;;;10.93;7.18;;;13.40;96.60;;;;;;4974269;28;20133;-53
2022/02/09 17:29:06;;;;;;;9.48;6.18;;;13.40;96.70;;;;;;4974309;28;20047;-55
2022/02/09 17:31:57;;;;;;;11.63;6.88;;;13.30;96.70;;;;;;4977472;28;20126;-54
2022/02/09 17:53:48;;;;;;;9.73;5.03;;;13.00;97.60;;;;;;4977407;28;20038;-52
2022/02/09 17:56:20;;;;;;;10.70;5.82;;;12.90;97.60;;;;;;4976753;28;20082;-55
2022/02/09 17:58:49;;;;;;;10.40;5.18;;;12.90;97.60;;;;;;4977384;28;20049;-52
2022/02/09 18:01:19;;;;;;;10.55;5.57;;;12.80;97.70;;;;;;4960596;28;20043;-53
2022/02/09 18:03:52;;;;;;;10.65;5.88;;;12.80;97.80;;;;;;4977311;28;20070;-49
2022/02/09 18:06:27;;;;;;;11.00;6.60;;;12.80;98.00;;;;;;4976378;28;20051;-52
2022/02/09 18:30:21;;;;;;;14.35;10.35;;;12.60;99.20;;;;;;4976573;28;20509;-54
2022/02/09 18:43:27;;;;;;;15.48;10.45;;;12.50;99.50;;;;;;4974906;28;20051;-54
2022/02/09 18:46:04;;;;;;;11.63;8.10;;;12.50;99.50;;;;;;4976520;28;20051;-50
2022/02/09 18:57:44;;;;;;;14.43;8.90;;;12.40;99.70;;;;;;4976129;28;20050;-55
2022/02/09 19:02:22;;;;;;;13.98;8.43;;;12.40;99.90;;;;;;4966175;28;20051;-57
2022/02/09 19:05:01;;;;;;;13.73;8.65;;;12.40;99.90;;;;;;4967455;28;20047;-55
2022/02/09 19:07:41;;;;;;;12.90;9.38;;;12.40;99.90;;;;;;4973610;28;20054;-57
2022/02/09 19:48:19;;;;;;;16.38;10.55;;;12.30;99.90;;;;;;4974067;28;20137;-54
2022/02/09 19:55:57;;;;;;;24.70;15.00;;;12.30;99.90;;;;;;4972773;28;20045;-52
2022/02/09 19:58:38;;;;;;;22.00;13.57;;;12.30;99.90;;;;;;4971674;28;20532;-53
2022/02/09 20:01:13;;;;;;;20.88;12.75;;;12.30;99.90;;;;;;4973288;28;20402;-56
2022/02/09 20:03:42;;;;;;;19.77;11.43;;;12.20;99.90;;;;;;4972615;28;20035;-56
2022/02/09 20:06:10;;;;;;;18.08;10.45;;;12.20;99.90;;;;;;4972684;28;20035;-55
2022/02/09 20:08:39;;;;;;;18.17;10.43;;;12.20;99.90;;;;;;4972686;28;20126;-50
2022/02/09 20:11:14;;;;;;;14.30;9.07;;;12.20;99.90;;;;;;4973652;28;20134;-57
2022/02/09 20:13:44;;;;;;;16.45;9.80;;;12.20;99.90;;;;;;4965733;28;20071;-55
2022/02/09 20:16:12;;;;;;;13.00;8.07;;;12.10;99.90;;;;;;4972117;28;20073;-55
2022/02/09 20:18:40;;;;;;;13.25;7.63;;;12.10;99.90;;;;;;4973205;28;20094;-54
2022/02/09 20:21:08;;;;;;;15.93;9.32;;;12.10;99.90;;;;;;4972225;28;20046;-56
2022/02/09 20:23:36;;;;;;;15.80;9.25;;;12.10;99.90;;;;;;4968033;28;20451;-51
2022/02/09 20:26:08;;;;;;;17.90;9.93;;;12.10;99.90;;;;;;4961845;28;20061;-54
2022/02/09 20:28:41;;;;;;;15.18;9.27;;;12.10;99.90;;;;;;4971648;28;20054;-54
2022/02/09 20:31:13;;;;;;;20.85;11.20;;;12.00;99.90;;;;;;4972278;28;20038;-52
2022/02/09 20:33:47;;;;;;;25.83;14.18;;;12.10;99.90;;;;;;4972273;28;20047;-52
2022/02/09 20:36:17;;;;;;;24.63;17.60;;;12.00;99.90;;;;;;4968711;28;20050;-50
2022/02/09 20:38:49;;;;;;;25.88;16.55;;;12.00;99.90;;;;;;4938003;28;20066;-53
2022/02/09 20:41:19;;;;;;;24.48;16.05;;;12.00;99.90;;;;;;4954254;28;20390;-53
2022/02/09 20:46:44;;;;;;;15.23;11.50;;;12.00;99.90;;;;;;4966204;28;20043;-52
2022/02/09 20:49:12;;;;;;;18.02;10.35;;;12.00;99.90;;;;;;4972342;28;20094;-53
2022/02/09 20:51:40;;;;;;;17.33;11.40;;;11.90;99.90;;;;;;4972712;28;20116;-54
2022/02/09 20:54:09;;;;;;;19.52;10.45;;;11.90;99.90;;;;;;4968850;28;20039;-54
2022/02/09 20:56:37;;;;;;;17.50;9.70;;;11.90;99.90;;;;;;4965272;28;20042;-55
2022/02/09 20:59:08;;;;;;;18.13;10.13;;;11.90;99.90;;;;;;4972437;28;20121;-54
2022/02/09 21:01:59;;;;;;;19.23;11.40;;;11.90;99.90;;;;;;4969154;28;20090;-57
2022/02/09 21:04:29;;;;;;;18.00;10.50;;;11.90;99.90;;;;;;4964626;28;20560;-51
2022/02/09 21:09:48;;;;;;;15.32;9.35;;;11.90;99.90;;;;;;4972060;28;20102;-52
2022/02/09 21:54:38;;;;;;;23.02;16.70;;;11.50;99.90;;;;;;4980570;28;20046;-57
2022/02/09 22:00:23;;;;;;;20.65;14.90;;;11.50;99.90;;;;;;4971094;28;20061;-52
2022/02/09 22:22:02;;;;;;;18.45;10.18;;;11.30;99.90;;;;;;4974590;28;20446;-55
2022/02/09 22:27:24;;;;;;;22.58;13.95;;;11.30;99.90;;;;;;4973905;28;20089;-55
2022/02/09 22:56:53;;;;;;;13.27;6.97;;;11.10;99.90;;;;;;4973290;28;20410;-54
2022/02/09 22:59:42;;;;;;;11.75;7.35;;;11.10;99.90;;;;;;4974174;28;20049;-53
2022/02/09 23:02:30;;;;;;;11.00;6.85;;;11.10;99.90;;;;;;4973913;28;20031;-53
2022/02/09 23:13:37;;;;;;;14.05;7.53;;;11.00;99.90;;;;;;4968381;28;20055;-54
2022/02/09 23:23:56;;;;;;;8.82;5.43;;;11.00;99.90;;;;;;4973365;28;20038;-53
2022/02/09 23:54:44;;;;;;;6.15;4.25;;;11.00;99.90;;;;;;4972772;28;20038;-57
